Time;durP1;ratioP1;P1;durP2;ratioP2;P2;SDS_P1;SDS_P2;PMS_P1;PMS_P2;Temp;Humidity;BMP_temperature;BMP_pressure;BME280_temperature;BME280_humidity;BME280_pressure;Samples;Min_cycle;Max_cycle;Signal;HPM_P1;HPM_P2
2022/09/18 00:00:37;;;;;;;;;;;10.70;99.90;;;;;;5099935;28;20284;-67
2022/09/18 00:03:03;;;;;;;;;;;10.70;99.90;;;;;;5079842;28;19928;-66
2022/09/18 00:05:29;;;;;;;;;;;10.70;99.90;;;;;;5073232;28;19935;-66
2022/09/18 00:07:54;;;;;;;;;;;10.80;99.90;;;;;;5088941;28;20018;-67
2022/09/18 00:10:20;;;;;;;;;;;10.80;99.90;;;;;;5111453;28;19924;-66
2022/09/18 00:12:45;;;;;;;;;;;10.80;99.90;;;;;;5106293;28;19924;-67
2022/09/18 00:15:11;;;;;;;;;;;10.80;99.90;;;;;;5105230;28;20456;-67
2022/09/18 00:17:37;;;;;;;;;;;10.80;99.90;;;;;;5093170;28;19976;-68
2022/09/18 00:20:03;;;;;;;;;;;10.90;99.90;;;;;;5111277;28;19951;-67
2022/09/18 00:22:29;;;;;;;;;;;10.90;99.90;;;;;;5095007;28;19924;-69
2022/09/18 00:24:54;;;;;;;;;;;10.90;99.90;;;;;;5095057;28;19955;-69
2022/09/18 00:27:20;;;;;;;;;;;10.90;99.90;;;;;;5084592;28;19931;-69
2022/09/18 00:29:45;;;;;;;;;;;10.90;99.90;;;;;;5086711;28;19924;-69
2022/09/18 00:32:11;;;;;;;;;;;10.90;99.90;;;;;;5099486;28;19928;-68
2022/09/18 00:34:38;;;;;;;;;;;10.90;99.90;;;;;;5116666;27;19974;-68
2022/09/18 00:37:04;;;;;;;;;;;10.90;99.90;;;;;;5091943;28;20221;-68
2022/09/18 00:39:29;;;;;;;;;;;10.90;99.90;;;;;;5093099;28;19928;-68
2022/09/18 00:41:55;;;;;;;;;;;10.80;99.90;;;;;;5110838;28;19971;-67
2022/09/18 00:44:23;;;;;;;;;;;10.80;99.90;;;;;;5101213;28;19949;-67
2022/09/18 00:46:49;;;;;;;;;;;10.80;99.90;;;;;;5085244;28;19974;-67
2022/09/18 00:49:23;;;;;;;;;;;10.90;99.90;;;;;;5101000;28;19967;-69
2022/09/18 00:51:51;;;;;;;;;;;10.80;99.90;;;;;;5083614;28;20293;-69
2022/09/18 00:54:23;;;;;;;;;;;10.90;99.90;;;;;;5100786;28;19928;-69
2022/09/18 00:56:49;;;;;;;;;;;10.90;99.90;;;;;;5114443;28;19928;-70
2022/09/18 00:59:19;;;;;;;;;;;10.90;99.90;;;;;;5087349;28;20343;-69
2022/09/18 01:01:44;;;;;;;;;;;10.90;99.90;;;;;;5110416;28;20121;-68
2022/09/18 01:04:10;;;;;;;;;;;10.90;99.90;;;;;;5106357;28;20046;-69
2022/09/18 01:06:49;;;;;;;;;;;10.80;99.90;;;;;;5119755;28;19954;-68
2022/09/18 01:09:24;;;;;;;;;;;10.80;99.90;;;;;;5065681;28;20106;-68
2022/09/18 01:11:54;;;;;;;;;;;10.80;99.90;;;;;;5089392;28;19928;-68
2022/09/18 01:14:38;;;;;;;;;;;10.80;99.90;;;;;;5105097;28;19984;-67
2022/09/18 01:17:22;;;;;;;;;;;10.70;99.90;;;;;;5089588;28;19927;-67
2022/09/18 01:19:51;;;;;;;;;;;10.60;99.90;;;;;;5084639;28;19963;-67
2022/09/18 01:22:35;;;;;;;;;;;10.70;99.90;;;;;;5092623;28;19930;-66
2022/09/18 01:25:01;;;;;;;;;;;10.60;99.90;;;;;;5106847;28;19928;-67
2022/09/18 01:27:32;;;;;;;;;;;10.60;99.90;;;;;;5093545;28;19924;-67
2022/09/18 01:30:05;;;;;;;;;;;10.60;99.90;;;;;;5111759;28;19976;-67
2022/09/18 01:32:34;;;;;;;;;;;10.60;99.90;;;;;;5107664;28;20006;-67
2022/09/18 01:35:06;;;;;;;;;;;10.50;99.90;;;;;;5111113;28;19931;-66
2022/09/18 01:37:51;;;;;;;;;;;10.50;99.90;;;;;;5102267;28;20309;-69
2022/09/18 01:40:25;;;;;;;;;;;10.50;99.90;;;;;;5098001;28;19932;-68
2022/09/18 01:42:52;;;;;;;;;;;10.50;99.90;;;;;;5114304;28;20337;-68
2022/09/18 01:45:21;;;;;;;;;;;10.60;99.90;;;;;;5075345;28;20234;-68
2022/09/18 01:47:52;;;;;;;;;;;10.60;99.90;;;;;;5080751;28;20041;-67
2022/09/18 01:50:18;;;;;;;;;;;10.60;99.90;;;;;;5078047;28;20003;-67
2022/09/18 01:52:58;;;;;;;;;;;10.60;99.90;;;;;;5093744;28;20062;-67
2022/09/18 01:55:25;;;;;;;;;;;10.60;99.90;;;;;;5082720;28;19951;-67
2022/09/18 01:57:57;;;;;;;;;;;10.60;99.90;;;;;;5079062;28;20389;-71
2022/09/18 02:00:24;;;;;;;;;;;10.60;99.90;;;;;;5091487;28;20399;-67
2022/09/18 02:02:58;;;;;;;;;;;10.60;99.90;;;;;;5093530;28;19928;-66
2022/09/18 02:05:26;;;;;;;;;;;10.60;99.90;;;;;;5093664;28;19924;-67
2022/09/18 02:07:58;;;;;;;;;;;10.60;99.90;;;;;;5068225;28;19924;-71
2022/09/18 02:10:25;;;;;;;;;;;10.60;99.90;;;;;;5086235;28;19928;-67
2022/09/18 02:12:52;;;;;;;;;;;10.60;99.90;;;;;;5093449;28;20262;-67
2022/09/18 02:15:20;;;;;;;;;;;10.60;99.90;;;;;;5086740;28;19924;-67
2022/09/18 02:17:48;;;;;;;;;;;10.70;99.90;;;;;;5088361;28;20315;-68
2022/09/18 02:20:19;;;;;;;;;;;10.60;99.90;;;;;;5068112;28;19951;-67
2022/09/18 02:22:46;;;;;;;;;;;10.60;99.90;;;;;;5056139;28;19928;-67
2022/09/18 02:25:14;;;;;;;;;;;10.60;99.90;;;;;;5056340;28;19935;-67
2022/09/18 02:27:40;;;;;;;;;;;10.60;99.90;;;;;;5059104;28;19979;-67
2022/09/18 02:30:06;;;;;;;;;;;10.60;99.90;;;;;;5068555;28;20338;-67
2022/09/18 02:32:34;;;;;;;;;;;10.60;99.90;;;;;;5082095;28;19924;-67
2022/09/18 02:34:59;;;;;;;;;;;10.60;99.90;;;;;;5087723;28;19977;-67
2022/09/18 02:37:48;;;;;;;;;;;10.60;99.90;;;;;;5093020;28;19924;-67
2022/09/18 02:40:20;;;;;;;;;;;10.70;99.90;;;;;;5081543;28;19930;-67
2022/09/18 02:43:05;;;;;;;;;;;10.70;99.90;;;;;;5092928;28;19993;-68
2022/09/18 02:45:42;;;;;;;;;;;10.70;99.90;;;;;;5104466;28;20273;-68
2022/09/18 02:48:17;;;;;;;;;;;10.70;99.90;;;;;;5085711;28;20404;-67
2022/09/18 02:50:54;;;;;;;;;;;10.70;99.90;;;;;;5087248;28;20328;-67
2022/09/18 02:53:24;;;;;;;;;;;10.80;99.90;;;;;;5112710;28;19932;-67
2022/09/18 02:55:55;;;;;;;;;;;10.80;99.90;;;;;;5094558;28;19932;-66
2022/09/18 02:58:26;;;;;;;;;;;10.80;99.90;;;;;;5086193;28;19975;-66
2022/09/18 03:00:53;;;;;;;;;;;10.90;99.90;;;;;;5088059;28;19935;-68
2022/09/18 03:03:19;;;;;;;;;;;10.90;99.90;;;;;;5110626;28;20000;-68
2022/09/18 03:05:44;;;;;;;;;;;10.90;99.90;;;;;;5094337;28;19946;-67
2022/09/18 03:08:10;;;;;;;;;;;10.90;99.90;;;;;;5077084;28;19931;-67
2022/09/18 03:10:36;;;;;;;;;;;10.90;99.90;;;;;;5108984;28;19928;-69
2022/09/18 03:13:01;;;;;;;;;;;10.90;99.90;;;;;;5087734;28;19935;-72
2022/09/18 03:15:27;;;;;;;;;;;10.80;99.90;;;;;;5085975;28;19946;-70
2022/09/18 03:17:52;;;;;;;;;;;10.80;99.90;;;;;;5094529;28;19928;-70
2022/09/18 03:20:18;;;;;;;;;;;10.80;99.90;;;;;;5077135;28;20261;-68
2022/09/18 03:22:43;;;;;;;;;;;10.80;99.90;;;;;;5102117;28;19924;-68
2022/09/18 03:25:11;;;;;;;;;;;10.80;99.90;;;;;;5082387;28;19923;-67
2022/09/18 03:27:36;;;;;;;;;;;10.70;99.90;;;;;;5109983;28;19931;-68
2022/09/18 03:30:02;;;;;;;;;;;10.60;99.90;;;;;;5077489;28;19932;-67
2022/09/18 03:32:28;;;;;;;;;;;10.70;99.90;;;;;;5111963;28;19928;-67
2022/09/18 03:34:54;;;;;;;;;;;10.70;99.90;;;;;;5101884;28;20382;-67
2022/09/18 03:37:19;;;;;;;;;;;10.70;99.90;;;;;;5082817;28;20033;-67
2022/09/18 03:39:45;;;;;;;;;;;10.70;99.90;;;;;;5111803;28;20006;-67
2022/09/18 03:42:10;;;;;;;;;;;10.70;99.90;;;;;;5096401;28;19924;-67
2022/09/18 03:44:36;;;;;;;;;;;10.70;99.90;;;;;;5092841;28;19931;-68
2022/09/18 03:47:02;;;;;;;;;;;10.80;99.90;;;;;;5107868;28;20521;-67
2022/09/18 03:49:27;;;;;;;;;;;10.60;99.90;;;;;;5106710;28;19947;-67
2022/09/18 03:51:53;;;;;;;;;;;10.80;99.90;;;;;;5111418;28;19988;-69
2022/09/18 03:54:19;;;;;;;;;;;10.80;99.90;;;;;;5093276;28;20015;-67
2022/09/18 03:56:44;;;;;;;;;;;10.80;99.90;;;;;;5064366;28;20285;-68
2022/09/18 03:59:10;;;;;;;;;;;10.80;99.90;;;;;;5094820;28;19923;-68
2022/09/18 04:01:35;;;;;;;;;;;10.80;99.90;;;;;;5091636;28;19963;-67
2022/09/18 04:04:01;;;;;;;;;;;10.70;99.90;;;;;;5107795;28;19927;-67
2022/09/18 04:06:26;;;;;;;;;;;10.70;99.90;;;;;;5108873;28;20277;-67
2022/09/18 04:08:52;;;;;;;;;;;10.70;99.90;;;;;;5093446;28;20299;-67
2022/09/18 04:11:18;;;;;;;;;;;10.70;99.90;;;;;;5110525;28;20333;-67
2022/09/18 04:13:43;;;;;;;;;;;10.60;99.90;;;;;;5083977;28;19928;-69
2022/09/18 04:16:09;;;;;;;;;;;10.50;99.90;;;;;;5092973;28;20373;-68
2022/09/18 04:18:35;;;;;;;;;;;10.60;99.90;;;;;;5107064;28;19967;-67
2022/09/18 04:21:00;;;;;;;;;;;10.60;99.90;;;;;;5086284;28;19932;-67
2022/09/18 04:23:26;;;;;;;;;;;10.60;99.90;;;;;;5083678;28;19927;-67
2022/09/18 04:25:52;;;;;;;;;;;10.60;99.90;;;;;;5092002;28;19931;-67
2022/09/18 04:28:17;;;;;;;;;;;10.50;99.90;;;;;;5072526;28;19930;-68
2022/09/18 04:30:45;;;;;;;;;;;10.60;99.90;;;;;;5105371;28;19950;-67
2022/09/18 04:33:10;;;;;;;;;;;10.60;99.90;;;;;;5111261;28;19924;-67
2022/09/18 04:35:36;;;;;;;;;;;10.60;99.90;;;;;;5110829;28;19924;-69
2022/09/18 04:38:01;;;;;;;;;;;10.60;99.90;;;;;;5086348;28;19946;-67
2022/09/18 04:40:27;;;;;;;;;;;10.60;99.90;;;;;;5093990;28;19973;-67
2022/09/18 04:42:52;;;;;;;;;;;10.60;99.90;;;;;;5111532;28;19931;-67
2022/09/18 04:45:18;;;;;;;;;;;10.60;99.90;;;;;;5092139;28;19927;-67
2022/09/18 04:47:44;;;;;;;;;;;10.60;99.90;;;;;;5083602;28;19928;-67
2022/09/18 04:50:10;;;;;;;;;;;11.10;99.90;;;;;;5104854;28;19923;-68
2022/09/18 04:52:35;;;;;;;;;;;10.60;99.90;;;;;;5083967;28;19924;-67
2022/09/18 04:55:01;;;;;;;;;;;10.60;99.90;;;;;;5093049;28;20009;-67
2022/09/18 04:57:26;;;;;;;;;;;10.60;99.90;;;;;;5091593;28;20308;-67
2022/09/18 04:59:52;;;;;;;;;;;10.60;99.90;;;;;;5091387;28;20329;-67
2022/09/18 05:02:18;;;;;;;;;;;10.60;99.90;;;;;;5091314;28;19985;-67
2022/09/18 05:04:43;;;;;;;;;;;10.60;99.90;;;;;;5108706;28;20261;-67
2022/09/18 05:07:09;;;;;;;;;;;10.60;99.90;;;;;;5115306;28;19973;-68
2022/09/18 05:09:35;;;;;;;;;;;10.60;99.90;;;;;;5057836;28;19961;-70
2022/09/18 05:12:00;;;;;;;;;;;10.70;99.90;;;;;;5091323;28;19997;-71
2022/09/18 05:14:26;;;;;;;;;;;10.70;99.90;;;;;;5096679;28;20301;-72
2022/09/18 05:16:52;;;;;;;;;;;10.70;99.90;;;;;;5077903;28;19950;-69
2022/09/18 05:19:18;;;;;;;;;;;10.60;99.90;;;;;;5077378;28;19928;-73
2022/09/18 05:21:43;;;;;;;;;;;10.60;99.90;;;;;;5043592;28;20352;-69
2022/09/18 05:24:09;;;;;;;;;;;10.60;99.90;;;;;;5090656;28;19928;-68
2022/09/18 05:26:34;;;;;;;;;;;10.60;99.90;;;;;;5064425;28;20015;-67
2022/09/18 05:29:00;;;;;;;;;;;10.60;99.90;;;;;;5081590;28;19928;-68
2022/09/18 05:31:25;;;;;;;;;;;10.70;99.90;;;;;;5072081;28;19971;-67
2022/09/18 05:33:51;;;;;;;;;;;10.60;99.90;;;;;;5082103;28;19929;-67
2022/09/18 05:36:17;;;;;;;;;;;10.60;99.90;;;;;;5081419;28;19924;-68
2022/09/18 05:38:44;;;;;;;;;;;10.70;99.90;;;;;;5042055;28;20388;-67
2022/09/18 05:41:09;;;;;;;;;;;10.70;99.90;;;;;;5059225;28;19932;-66
2022/09/18 05:43:35;;;;;;;;;;;10.70;99.90;;;;;;5073342;28;19932;-66
2022/09/18 05:46:01;;;;;;;;;;;10.70;99.90;;;;;;5097444;28;19936;-66
2022/09/18 05:48:26;;;;;;;;;;;10.70;99.90;;;;;;5074234;28;20378;-67
2022/09/18 05:50:52;;;;;;;;;;;10.70;99.90;;;;;;5070293;28;19932;-66
2022/09/18 05:53:19;;;;;;;;;;;10.70;99.90;;;;;;5091880;28;19928;-69
2022/09/18 05:55:44;;;;;;;;;;;10.70;99.90;;;;;;5091990;28;19924;-68
2022/09/18 05:58:14;;;;;;;;;;;10.70;99.90;;;;;;5076676;28;20396;-68
2022/09/18 06:00:39;;;;;;;;;;;10.70;99.90;;;;;;5075037;28;20058;-68
2022/09/18 06:03:07;;;;;;;;;;;10.70;99.90;;;;;;5075183;28;20400;-68
2022/09/18 06:05:34;;;;;;;;;;;10.70;99.90;;;;;;5092677;28;20027;-68
2022/09/18 06:08:01;;;;;;;;;;;10.70;99.90;;;;;;5076145;28;19924;-68
2022/09/18 06:10:28;;;;;;;;;;;10.70;99.90;;;;;;5092677;28;20408;-68
2022/09/18 06:13:00;;;;;;;;;;;10.60;99.90;;;;;;5074229;28;19939;-69
2022/09/18 06:15:26;;;;;;;;;;;10.70;99.90;;;;;;5090366;28;20007;-69
2022/09/18 06:17:52;;;;;;;;;;;10.60;99.90;;;;;;5111896;27;20325;-68
2022/09/18 06:20:18;;;;;;;;;;;10.70;99.90;;;;;;5092274;28;19981;-69
2022/09/18 06:22:44;;;;;;;;;;;10.70;99.90;;;;;;5113051;28;20276;-71
2022/09/18 06:25:10;;;;;;;;;;;10.70;99.90;;;;;;5076251;28;19924;-69
2022/09/18 06:27:35;;;;;;;;;;;10.70;99.90;;;;;;5094480;28;20306;-70
2022/09/18 06:30:01;;;;;;;;;;;10.70;99.90;;;;;;5081057;28;19924;-69
2022/09/18 06:32:27;;;;;;;;;;;10.80;99.90;;;;;;5069916;28;19935;-74
2022/09/18 06:34:52;;;;;;;;;;;10.90;99.90;;;;;;5080783;28;19958;-68
2022/09/18 06:37:18;;;;;;;;;;;10.80;99.90;;;;;;5095385;28;20357;-68
2022/09/18 06:39:44;;;;;;;;;;;10.80;99.90;;;;;;5084204;28;20010;-69
2022/09/18 06:42:09;;;;;;;;;;;10.90;99.90;;;;;;5122413;27;20022;-67
2022/09/18 06:44:35;;;;;;;;;;;10.90;99.90;;;;;;5083503;28;20377;-67
2022/09/18 06:47:01;;;;;;;;;;;10.90;99.90;;;;;;5088842;28;19958;-67
2022/09/18 06:49:27;;;;;;;;;;;10.90;99.90;;;;;;5089532;28;19928;-66
2022/09/18 06:51:52;;;;;;;;;;;10.90;99.90;;;;;;5076607;28;20308;-67
2022/09/18 06:54:18;;;;;;;;;;;11.00;99.90;;;;;;5089631;28;20022;-68
2022/09/18 06:56:44;;;;;;;;;;;11.00;99.90;;;;;;5080025;28;19932;-67
2022/09/18 06:59:10;;;;;;;;;;;11.00;99.90;;;;;;5090508;28;19928;-67
2022/09/18 07:01:36;;;;;;;;;;;11.10;99.90;;;;;;5090018;28;20438;-67
2022/09/18 07:04:01;;;;;;;;;;;11.10;99.90;;;;;;5091004;28;19924;-66
2022/09/18 07:06:27;;;;;;;;;;;11.10;99.90;;;;;;5079148;28;20243;-67
2022/09/18 07:08:52;;;;;;;;;;;11.00;99.90;;;;;;5083941;28;19982;-67
2022/09/18 07:11:18;;;;;;;;;;;11.10;99.90;;;;;;5090322;28;20042;-67
2022/09/18 07:13:45;;;;;;;;;;;11.10;99.90;;;;;;5091887;28;19929;-68
2022/09/18 07:16:10;;;;;;;;;;;11.10;99.90;;;;;;5086785;28;19924;-67
2022/09/18 07:18:36;;;;;;;;;;;11.10;99.90;;;;;;5086008;28;19932;-67
2022/09/18 07:21:02;;;;;;;;;;;11.10;99.90;;;;;;5082150;28;19982;-67
2022/09/18 07:23:29;;;;;;;;;;;11.10;99.90;;;;;;5091066;28;19935;-66
2022/09/18 07:25:57;;;;;;;;;;;11.20;99.90;;;;;;5089214;28;19924;-67
2022/09/18 07:28:23;;;;;;;;;;;11.20;99.90;;;;;;5073620;28;19929;-68
2022/09/18 07:30:48;;;;;;;;;;;11.20;99.90;;;;;;5113200;27;19934;-68
2022/09/18 07:33:14;;;;;;;;;;;11.20;99.90;;;;;;5088446;28;20029;-67
2022/09/18 07:35:39;;;;;;;;;;;11.30;99.90;;;;;;5090235;28;19928;-66
2022/09/18 07:38:06;;;;;;;;;;;11.20;99.90;;;;;;5078697;28;19994;-68
2022/09/18 07:40:32;;;;;;;;;;;11.30;99.90;;;;;;5089470;28;19924;-68
2022/09/18 07:42:58;;;;;;;;;;;11.20;99.90;;;;;;5090228;28;19924;-67
2022/09/18 07:45:24;;;;;;;;;;;11.30;99.90;;;;;;5075637;28;20001;-69
2022/09/18 07:47:50;;;;;;;;;;;11.30;99.90;;;;;;5084942;28;20354;-69
2022/09/18 07:50:15;;;;;;;;;;;11.70;99.90;;;;;;5119463;27;20289;-68
2022/09/18 07:52:51;;;;;;;;;;;11.30;99.90;;;;;;5087289;28;19981;-70
2022/09/18 07:55:19;;;;;;;;;;;11.30;99.90;;;;;;5085494;28;20242;-69
2022/09/18 07:57:52;;;;;;;;;;;11.20;99.90;;;;;;5080321;28;19924;-68
2022/09/18 08:00:18;;;;;;;;;;;11.20;99.90;;;;;;5078736;28;19924;-68
2022/09/18 08:02:43;;;;;;;;;;;11.20;99.90;;;;;;5123738;27;19928;-71
2022/09/18 08:05:09;;;;;;;;;;;11.20;99.90;;;;;;5082532;28;19935;-66
2022/09/18 08:07:35;;;;;;;;;;;11.20;99.90;;;;;;5073240;28;19977;-66
2022/09/18 08:10:01;;;;;;;;;;;11.20;99.90;;;;;;5084614;28;20349;-68
2022/09/18 08:12:26;;;;;;;;;;;11.30;99.90;;;;;;5086527;28;19928;-67
2022/09/18 08:14:52;;;;;;;;;;;11.30;99.90;;;;;;5077140;28;19928;-67
2022/09/18 08:17:17;;;;;;;;;;;11.30;99.90;;;;;;5077535;28;20321;-68
2022/09/18 08:19:43;;;;;;;;;;;11.30;99.90;;;;;;5102646;28;19939;-68
2022/09/18 08:22:08;;;;;;;;;;;11.30;99.90;;;;;;5103239;28;19931;-67
2022/09/18 08:24:34;;;;;;;;;;;11.20;99.90;;;;;;5069222;28;19924;-68
2022/09/18 08:27:02;;;;;;;;;;;11.30;99.90;;;;;;5069476;28;19925;-69
2022/09/18 08:29:31;;;;;;;;;;;11.20;99.90;;;;;;5068897;28;19982;-71
2022/09/18 08:31:57;;;;;;;;;;;11.20;99.90;;;;;;5068356;28;20028;-70
2022/09/18 08:34:22;;;;;;;;;;;11.20;99.90;;;;;;5068700;28;20019;-70
2022/09/18 08:36:48;;;;;;;;;;;11.20;99.90;;;;;;5069751;28;19928;-69
2022/09/18 08:39:14;;;;;;;;;;;11.20;99.90;;;;;;5054331;28;20003;-71
2022/09/18 08:41:39;;;;;;;;;;;11.20;99.90;;;;;;5067528;28;19935;-70
2022/09/18 08:44:14;;;;;;;;;;;11.20;99.90;;;;;;5069263;28;19924;-71
2022/09/18 08:46:51;;;;;;;;;;;11.20;99.90;;;;;;5079533;28;20293;-70
2022/09/18 08:49:26;;;;;;;;;;;11.20;99.90;;;;;;5127369;27;19932;-69
2022/09/18 08:51:53;;;;;;;;;;;11.20;99.90;;;;;;5068529;28;19957;-70
2022/09/18 08:54:22;;;;;;;;;;;11.20;99.90;;;;;;5076286;28;19985;-70
2022/09/18 08:56:48;;;;;;;;;;;11.20;99.90;;;;;;5083822;28;20001;-70
2022/09/18 08:59:17;;;;;;;;;;;11.20;99.90;;;;;;5085277;28;19927;-70
2022/09/18 09:01:54;;;;;;;;;;;11.20;99.90;;;;;;5078948;28;19932;-73
2022/09/18 09:04:23;;;;;;;;;;;11.20;99.90;;;;;;5106628;28;19923;-70
2022/09/18 09:06:48;;;;;;;;;;;11.20;99.90;;;;;;5073024;28;20321;-71
2022/09/18 09:09:27;;;;;;;;;;;11.20;99.90;;;;;;5071362;28;19924;-71
2022/09/18 09:12:12;;;;;;;;;;;11.10;99.90;;;;;;5071879;28;20331;-70
2022/09/18 09:15:06;;;;;;;;;;;11.10;99.90;;;;;;5081651;28;19928;-72
2022/09/18 09:17:39;;;;;;;;;;;11.00;99.90;;;;;;5002017;28;19991;-72
2022/09/18 09:20:05;;;;;;;;;;;11.00;99.90;;;;;;5071514;28;20365;-70
2022/09/18 09:22:36;;;;;;;;;;;11.00;99.90;;;;;;5072448;28;19931;-69
2022/09/18 09:25:20;;;;;;;;;;;10.90;99.90;;;;;;5089877;28;19935;-69
2022/09/18 09:27:48;;;;;;;;;;;11.00;99.90;;;;;;5071260;28;19924;-70
2022/09/18 09:30:17;;;;;;;;;;;10.90;99.90;;;;;;5085938;28;20341;-70
2022/09/18 09:32:52;;;;;;;;;;;11.00;99.90;;;;;;5064986;28;19928;-67
2022/09/18 09:35:28;;;;;;;;;;;10.70;99.90;;;;;;5105668;28;20486;-68
2022/09/18 09:37:54;;;;;;;;;;;11.10;99.90;;;;;;5071515;28;20291;-67
2022/09/18 09:40:20;;;;;;;;;;;11.20;99.90;;;;;;5107374;28;19931;-65
2022/09/18 09:42:51;;;;;;;;;;;11.20;99.90;;;;;;5092256;28;20001;-64
2022/09/18 09:45:23;;;;;;;;;;;11.30;99.90;;;;;;5083509;28;19997;-65
2022/09/18 09:47:55;;;;;;;;;;;11.30;99.90;;;;;;5110274;28;19943;-67
2022/09/18 09:50:40;;;;;;;;;;;11.30;99.90;;;;;;5086794;28;19924;-67
2022/09/18 09:53:08;;;;;;;;;;;11.30;99.90;;;;;;5092934;28;19949;-65
2022/09/18 09:55:41;;;;;;;;;;;11.40;99.90;;;;;;5092629;28;20452;-66
2022/09/18 09:58:22;;;;;;;;;;;11.40;99.90;;;;;;5074291;28;19924;-66
2022/09/18 10:00:55;;;;;;;;;;;11.50;99.90;;;;;;5052611;28;19928;-64
2022/09/18 10:03:20;;;;;;;;;;;11.50;99.90;;;;;;5085019;28;20384;-65
2022/09/18 10:05:56;;;;;;;;;;;11.50;99.90;;;;;;5092940;28;19939;-66
2022/09/18 10:08:28;;;;;;;;;;;11.60;99.90;;;;;;5085119;28;20420;-65
2022/09/18 10:10:58;;;;;;;;;;;11.60;99.90;;;;;;5092147;28;20023;-65
2022/09/18 10:13:42;;;;;;;;;;;11.70;99.90;;;;;;5093922;28;20411;-67
2022/09/18 10:16:14;;;;;;;;;;;11.70;99.90;;;;;;5049782;28;19932;-65
2022/09/18 10:18:44;;;;;;;;;;;11.80;99.90;;;;;;5092621;28;19935;-66
2022/09/18 10:21:14;;;;;;;;;;;11.80;99.90;;;;;;5057051;28;19932;-66
2022/09/18 10:23:41;;;;;;;;;;;11.90;99.90;;;;;;5074678;28;19935;-64
2022/09/18 10:26:12;;;;;;;;;;;11.90;99.90;;;;;;5074782;28;19939;-68
2022/09/18 10:28:37;;;;;;;;;;;12.00;99.90;;;;;;5074364;28;19924;-66
2022/09/18 10:31:04;;;;;;;;;;;12.00;99.90;;;;;;5093166;28;20404;-66
2022/09/18 10:33:33;;;;;;;;;;;12.10;99.90;;;;;;5092989;28;19931;-65
2022/09/18 10:36:07;;;;;;;;;;;12.10;99.90;;;;;;5091431;28;19931;-68
2022/09/18 10:38:33;;;;;;;;;;;12.10;99.90;;;;;;5091091;28;19928;-68
2022/09/18 10:41:20;;;;;;;;;;;12.10;99.90;;;;;;5091581;28;19928;-68
2022/09/18 10:43:54;;;;;;;;;;;12.10;99.90;;;;;;5098054;28;19932;-68
2022/09/18 10:46:24;;;;;;;;;;;12.10;99.90;;;;;;5091688;28;20087;-68
2022/09/18 10:48:50;;;;;;;;;;;12.40;99.90;;;;;;5074383;28;19924;-66
2022/09/18 10:51:17;;;;;;;;;;;12.30;99.90;;;;;;5080991;28;19935;-66
2022/09/18 10:53:43;;;;;;;;;;;12.30;99.90;;;;;;5111486;28;19935;-66
2022/09/18 10:56:16;;;;;;;;;;;12.40;99.90;;;;;;5070173;28;19936;-67
2022/09/18 10:58:42;;;;;;;;;;;12.50;99.90;;;;;;5094742;28;20333;-67
2022/09/18 11:01:08;;;;;;;;;;;12.60;99.90;;;;;;5087801;28;19932;-66
2022/09/18 11:03:49;;;;;;;;;;;12.70;99.90;;;;;;5112079;28;19934;-65
2022/09/18 11:06:25;;;;;;;;;;;12.80;99.90;;;;;;5085953;28;19923;-65
2022/09/18 11:08:55;;;;;;;;;;;12.70;99.90;;;;;;5106355;28;19931;-65
2022/09/18 11:11:31;;;;;;;;;;;13.00;99.90;;;;;;5112627;28;19993;-67
2022/09/18 11:13:57;;;;;;;;;;;13.00;99.90;;;;;;5101474;28;19939;-66
2022/09/18 11:16:27;;;;;;;;;;;13.10;99.90;;;;;;5081059;28;19924;-68
2022/09/18 11:19:23;;;;;;;;;;;13.10;99.90;;;;;;5091893;28;19984;-65
2022/09/18 11:21:49;;;;;;;;;;;13.10;99.90;;;;;;5066666;28;20436;-65
2022/09/18 11:24:17;;;;;;;;;;;13.20;99.90;;;;;;5091079;28;20221;-65
2022/09/18 11:26:50;;;;;;;;;;;13.20;99.90;;;;;;5066788;28;19932;-65
2022/09/18 11:29:32;;;;;;;;;;;13.30;99.90;;;;;;5089513;28;19928;-64
2022/09/18 11:32:14;;;;;;;;;;;13.30;99.90;;;;;;5091670;28;19924;-64
2022/09/18 11:35:04;;;;;;;;;;;13.40;99.90;;;;;;5082380;28;19928;-65
2022/09/18 11:37:32;;;;;;;;;;;13.40;99.90;;;;;;5077293;28;19936;-66
2022/09/18 11:40:00;;;;;;;;;;;13.50;99.90;;;;;;5091286;28;20267;-70
2022/09/18 11:42:25;;;;;;;;;;;13.60;99.90;;;;;;5074243;28;19928;-65
2022/09/18 11:44:51;;;;;;;;;;;13.70;99.90;;;;;;5123937;27;21078;-66
2022/09/18 11:47:41;;;;;;;;;;;13.70;99.90;;;;;;5087753;28;20438;-66
2022/09/18 11:50:08;;;;;;;;;;;13.80;99.90;;;;;;5089421;28;20339;-66
2022/09/18 11:52:44;;;;;;;;;;;13.80;99.90;;;;;;5083897;28;19927;-65
2022/09/18 11:55:09;;;;;;;;;;;13.90;99.90;;;;;;5111588;28;19930;-65
2022/09/18 11:57:40;;;;;;;;;;;13.70;99.90;;;;;;5100475;28;20289;-66
2022/09/18 12:00:11;;;;;;;;;;;13.90;99.90;;;;;;5111649;28;19928;-65
2022/09/18 12:02:43;;;;;;;;;;;13.80;99.90;;;;;;5111482;28;19924;-65
2022/09/18 12:05:12;;;;;;;;;;;13.80;99.90;;;;;;5110886;28;19935;-65
2022/09/18 12:07:43;;;;;;;;;;;13.70;99.90;;;;;;5103313;28;19928;-64
2022/09/18 12:10:11;;;;;;;;;;;13.60;99.90;;;;;;5092170;28;20239;-66
2022/09/18 12:12:47;;;;;;;;;;;13.60;99.90;;;;;;5090259;28;19971;-65
2022/09/18 12:15:17;;;;;;;;;;;13.60;99.90;;;;;;5090964;28;19957;-73
2022/09/18 12:17:43;;;;;;;;;;;13.60;99.90;;;;;;5091226;28;20023;-66
2022/09/18 12:20:14;;;;;;;;;;;13.70;99.90;;;;;;5089007;28;19989;-66
2022/09/18 12:22:42;;;;;;;;;;;13.80;99.90;;;;;;5088867;28;20006;-67
2022/09/18 12:25:15;;;;;;;;;;;13.90;99.90;;;;;;5072637;28;19954;-67
2022/09/18 12:27:46;;;;;;;;;;;14.00;99.90;;;;;;5087345;28;19928;-65
2022/09/18 12:30:16;;;;;;;;;;;14.10;99.90;;;;;;5091805;28;19924;-65
2022/09/18 12:32:48;;;;;;;;;;;14.20;99.90;;;;;;5091854;28;20011;-66
2022/09/18 12:35:32;;;;;;;;;;;14.20;99.90;;;;;;5108169;28;19935;-66
2022/09/18 12:38:06;;;;;;;;;;;14.30;99.90;;;;;;5098222;28;19928;-66
2022/09/18 12:40:44;;;;;;;;;;;14.40;99.90;;;;;;5109076;28;19983;-66
2022/09/18 12:43:26;;;;;;;;;;;14.50;99.90;;;;;;5105961;28;20270;-66
2022/09/18 12:46:01;;;;;;;;;;;14.50;99.90;;;;;;5087468;28;19931;-66
2022/09/18 12:48:27;;;;;;;;;;;14.60;99.90;;;;;;5071956;28;20022;-66
2022/09/18 12:50:52;;;;;;;;;;;14.50;99.90;;;;;;5090272;28;20093;-66
2022/09/18 12:53:24;;;;;;;;;;;14.50;99.90;;;;;;5090112;28;19935;-68
2022/09/18 12:56:01;;;;;;;;;;;14.50;99.90;;;;;;5093238;28;19927;-67
2022/09/18 12:58:27;;;;;;;;;;;14.50;99.90;;;;;;5071672;28;19928;-67
2022/09/18 13:00:53;;;;;;;;;;;14.60;99.90;;;;;;5090020;28;19943;-66
2022/09/18 13:03:18;;;;;;;;;;;14.60;99.90;;;;;;5090105;28;20307;-65
2022/09/18 13:05:50;;;;;;;;;;;14.70;99.90;;;;;;5088664;28;19928;-70
2022/09/18 13:08:31;;;;;;;;;;;14.70;99.90;;;;;;5056380;28;20277;-66
2022/09/18 13:11:07;;;;;;;;;;;14.70;99.90;;;;;;5071467;28;20270;-67
2022/09/18 13:13:33;;;;;;;;;;;14.80;99.90;;;;;;5080436;28;20408;-67
2022/09/18 13:16:01;;;;;;;;;;;14.80;99.90;;;;;;5114023;28;19981;-70
2022/09/18 13:18:33;;;;;;;;;;;14.80;99.90;;;;;;5109663;28;19970;-70
2022/09/18 13:21:01;;;;;;;;;;;14.60;99.90;;;;;;5071792;28;19924;-70
2022/09/18 13:23:36;;;;;;;;;;;14.20;99.90;;;;;;5092790;28;19924;-68
2022/09/18 13:26:03;;;;;;;;;;;13.70;99.90;;;;;;5105510;28;19924;-69
2022/09/18 13:28:29;;;;;;;;;;;13.40;99.90;;;;;;5093722;28;19924;-70
2022/09/18 13:31:13;;;;;;;;;;;13.20;99.90;;;;;;5076010;28;19934;-69
2022/09/18 13:33:47;;;;;;;;;;;13.00;99.90;;;;;;5096279;28;19931;-70
2022/09/18 13:36:20;;;;;;;;;;;13.00;99.90;;;;;;5100820;28;19932;-70
2022/09/18 13:38:47;;;;;;;;;;;13.00;99.90;;;;;;5096255;28;19924;-70
2022/09/18 13:41:12;;;;;;;;;;;13.00;99.90;;;;;;5071770;28;19963;-69
2022/09/18 13:43:44;;;;;;;;;;;13.00;99.90;;;;;;5090680;28;20627;-69
2022/09/18 13:46:27;;;;;;;;;;;13.10;99.90;;;;;;5073115;28;19932;-67
2022/09/18 13:48:55;;;;;;;;;;;13.10;99.90;;;;;;5106342;28;19928;-66
2022/09/18 13:51:29;;;;;;;;;;;13.20;99.90;;;;;;5091556;28;19932;-66
2022/09/18 13:54:13;;;;;;;;;;;13.30;99.90;;;;;;5073366;28;19940;-67
2022/09/18 13:56:57;;;;;;;;;;;13.30;99.90;;;;;;5090839;28;19968;-67
2022/09/18 13:59:41;;;;;;;;;;;13.40;99.90;;;;;;5073429;28;19977;-69
2022/09/18 14:02:20;;;;;;;;;;;13.40;99.90;;;;;;5068705;28;20019;-70
2022/09/18 14:04:48;;;;;;;;;;;13.40;99.90;;;;;;5074621;28;20007;-68
2022/09/18 14:07:17;;;;;;;;;;;13.40;99.90;;;;;;5068578;28;19930;-68
2022/09/18 14:09:43;;;;;;;;;;;13.30;99.90;;;;;;5074759;28;20026;-69
2022/09/18 14:12:13;;;;;;;;;;;13.30;99.90;;;;;;5088445;28;19928;-68
2022/09/18 14:14:39;;;;;;;;;;;13.20;99.90;;;;;;5093202;28;19982;-68
2022/09/18 14:17:14;;;;;;;;;;;13.20;99.90;;;;;;5062348;28;19924;-68
2022/09/18 14:19:42;;;;;;;;;;;13.20;99.90;;;;;;5065725;28;20042;-69
2022/09/18 14:22:28;;;;;;;;;;;13.20;99.90;;;;;;5078537;28;20372;-68
2022/09/18 14:24:55;;;;;;;;;;;13.20;99.90;;;;;;5065890;28;19927;-68
2022/09/18 14:27:35;;;;;;;;;;;13.20;99.90;;;;;;5063227;28;19977;-69